createdAt,value
2018-07-28T00:02:01.003Z,19.10
2018-07-28T00:04:29.485Z,19.10
2018-07-28T00:06:57.925Z,19.00
2018-07-28T00:09:26.404Z,19.00
2018-07-28T00:11:54.892Z,19.00
2018-07-28T00:14:23.410Z,18.90
2018-07-28T00:16:51.899Z,18.90
2018-07-28T00:19:20.381Z,18.90
2018-07-28T00:21:48.798Z,18.80
2018-07-28T00:24:17.308Z,18.80
2018-07-28T00:26:45.726Z,18.80
2018-07-28T00:29:14.170Z,18.80
2018-07-28T00:31:55.234Z,18.90
2018-07-28T00:34:23.738Z,18.90
2018-07-28T00:36:52.140Z,19.10
2018-07-28T00:39:20.558Z,19.10
2018-07-28T00:41:49.022Z,19.20
2018-07-28T00:44:17.462Z,19.10
2018-07-28T00:46:45.940Z,19.10
2018-07-28T00:49:14.422Z,19.10
2018-07-28T00:51:42.846Z,19.20
2018-07-28T00:54:11.336Z,19.10
2018-07-28T00:56:39.799Z,19.10
2018-07-28T00:59:08.202Z,19.10
2018-07-28T01:01:36.635Z,19.00
2018-07-28T01:04:05.055Z,19.00
2018-07-28T01:06:33.499Z,18.90
2018-07-28T01:09:01.890Z,18.90
2018-07-28T01:11:30.480Z,18.80
2018-07-28T01:13:58.888Z,18.80
2018-07-28T01:16:27.377Z,18.80
2018-07-28T01:18:55.819Z,18.70
2018-07-28T01:21:24.300Z,18.70
2018-07-28T01:23:52.733Z,18.70
2018-07-28T01:26:21.197Z,18.60
2018-07-28T01:28:53.880Z,18.60
2018-07-28T01:31:22.282Z,18.60
2018-07-28T01:33:50.758Z,18.60
2018-07-28T01:36:19.245Z,18.60
2018-07-28T01:38:47.664Z,18.60
2018-07-28T01:41:16.319Z,18.60
2018-07-28T01:43:44.784Z,18.60
2018-07-28T01:46:13.267Z,18.60
2018-07-28T01:48:41.980Z,18.60
2018-07-28T01:51:10.358Z,18.60
2018-07-28T01:53:38.813Z,18.60
2018-07-28T01:56:07.675Z,18.60
2018-07-28T01:58:36.204Z,18.60
2018-07-28T02:01:04.613Z,18.50
2018-07-28T02:03:33.054Z,18.50
2018-07-28T02:06:01.603Z,18.50
2018-07-28T02:08:30.106Z,18.60
2018-07-28T02:10:59.066Z,18.70
2018-07-28T02:13:27.553Z,18.70
2018-07-28T02:15:56.041Z,18.70
2018-07-28T02:18:24.505Z,18.70
2018-07-28T02:20:52.891Z,18.80
2018-07-28T02:23:21.347Z,18.80
2018-07-28T02:25:49.751Z,18.80
2018-07-28T02:28:18.214Z,18.90
2018-07-28T02:30:46.653Z,18.90
2018-07-28T02:33:15.111Z,19.00
2018-07-28T02:35:43.521Z,19.00
2018-07-28T02:38:11.975Z,19.10
2018-07-28T02:40:40.421Z,19.10
2018-07-28T02:43:09.225Z,19.10
2018-07-28T02:45:37.692Z,19.10
2018-07-28T02:48:06.349Z,19.20
2018-07-28T02:50:34.781Z,19.20
2018-07-28T02:53:03.428Z,19.30
2018-07-28T02:55:31.921Z,19.30
2018-07-28T02:58:00.745Z,19.40
2018-07-28T03:00:29.558Z,19.70
2018-07-28T03:02:58.128Z,19.80
2018-07-28T03:05:26.653Z,20.00
2018-07-28T03:07:55.235Z,20.20
2018-07-28T03:10:23.872Z,20.20
2018-07-28T03:12:52.365Z,20.20
2018-07-28T03:15:34.442Z,20.20
2018-07-28T03:18:04.029Z,20.20
2018-07-28T03:20:32.722Z,20.30
2018-07-28T03:23:02.122Z,20.40
2018-07-28T03:25:30.674Z,20.40
2018-07-28T03:27:59.718Z,20.50
2018-07-28T03:30:28.506Z,20.50
2018-07-28T03:32:57.314Z,20.50
2018-07-28T03:35:26.032Z,20.50
2018-07-28T03:37:54.564Z,20.50
2018-07-28T03:55:12.046Z,20.60
2018-07-28T03:57:40.708Z,20.60
2018-07-28T04:00:11.092Z,20.50
2018-07-28T04:02:39.976Z,20.50
2018-07-28T04:05:10.412Z,20.50
2018-07-28T04:07:39.355Z,20.60
2018-07-28T04:10:08.703Z,20.60
2018-07-28T04:12:37.511Z,20.60
2018-07-28T04:15:08.631Z,20.60
2018-07-28T04:17:44.357Z,20.60
2018-07-28T04:20:13.237Z,20.60
2018-07-28T04:22:41.887Z,20.60
2018-07-28T04:25:10.586Z,20.60
2018-07-28T04:27:39.333Z,20.60
2018-07-28T04:30:08.569Z,20.60
2018-07-28T04:32:37.357Z,20.60
2018-07-28T04:35:06.361Z,20.70
2018-07-28T04:37:35.403Z,20.70
2018-07-28T04:40:04.231Z,20.70
2018-07-28T04:42:32.864Z,20.70
2018-07-28T04:45:02.320Z,20.80
2018-07-28T04:47:31.107Z,20.80
2018-07-28T04:50:00.049Z,20.90
2018-07-28T04:52:29.647Z,21.00
2018-07-28T04:54:58.853Z,21.10
2018-07-28T04:57:27.606Z,21.00
2018-07-28T04:59:56.540Z,21.00
2018-07-28T05:02:26.706Z,21.00
2018-07-28T05:04:56.047Z,20.90
2018-07-28T05:07:25.058Z,20.70
2018-07-28T05:09:53.687Z,20.50
2018-07-28T05:12:22.268Z,20.50
2018-07-28T05:14:50.946Z,20.40
2018-07-28T05:17:19.541Z,20.50
2018-07-28T05:19:48.073Z,20.50
2018-07-28T05:22:16.559Z,20.60
2018-07-28T05:24:45.077Z,20.70
2018-07-28T05:27:13.639Z,20.70
2018-07-28T05:29:42.310Z,20.90
2018-07-28T05:32:10.799Z,20.90
2018-07-28T05:34:39.362Z,20.90
2018-07-28T05:37:07.886Z,20.70
2018-07-28T05:39:36.431Z,20.50
2018-07-28T05:42:05.009Z,20.30
2018-07-28T05:44:33.445Z,20.10
2018-07-28T05:47:02.108Z,19.90
2018-07-28T05:49:30.632Z,19.80
2018-07-28T05:51:59.082Z,19.80
2018-07-28T05:54:27.530Z,19.80
2018-07-28T05:56:55.984Z,19.80
2018-07-28T05:59:24.432Z,19.90
2018-07-28T06:01:53.038Z,19.90
2018-07-28T06:04:21.524Z,20.00
2018-07-28T06:06:50.010Z,20.00
2018-07-28T06:09:18.456Z,20.10
2018-07-28T06:11:46.914Z,20.20
2018-07-28T06:14:15.421Z,20.20
2018-07-28T06:16:43.846Z,20.30
2018-07-28T06:19:12.265Z,20.40
2018-07-28T06:21:40.728Z,20.40
2018-07-28T06:24:09.181Z,20.40
2018-07-28T06:26:37.675Z,20.50
2018-07-28T06:29:06.141Z,20.50
2018-07-28T06:31:34.714Z,20.60
2018-07-28T06:36:36.383Z,20.80
2018-07-28T06:39:08.542Z,20.90
2018-07-28T06:41:37.067Z,21.00
2018-07-28T06:44:07.371Z,21.10
2018-07-28T06:46:36.499Z,21.20
2018-07-28T06:49:05.775Z,21.40
2018-07-28T06:51:35.731Z,21.60
2018-07-28T06:54:04.927Z,21.80
2018-07-28T06:56:34.737Z,21.80
2018-07-28T06:59:03.735Z,21.90
2018-07-28T07:01:34.643Z,21.90
2018-07-28T07:04:03.281Z,22.00
2018-07-28T07:06:31.755Z,22.10
2018-07-28T07:09:00.877Z,22.10
2018-07-28T07:11:29.563Z,22.10
2018-07-28T07:13:58.709Z,22.30
2018-07-28T07:16:27.206Z,22.40
2018-07-28T07:18:55.715Z,22.50
2018-07-28T07:21:24.313Z,22.70
2018-07-28T07:23:52.820Z,22.90
2018-07-28T07:26:21.350Z,23.10
2018-07-28T07:28:49.787Z,23.30
2018-07-28T07:31:18.325Z,23.60
2018-07-28T07:33:46.810Z,24.00
2018-07-28T07:36:15.397Z,24.20
2018-07-28T07:38:43.914Z,24.20
2018-07-28T07:41:12.412Z,24.30
2018-07-28T07:43:41.018Z,24.50
2018-07-28T07:46:09.546Z,24.70
2018-07-28T07:48:38.246Z,25.40
2018-07-28T07:51:06.723Z,26.30
2018-07-28T07:53:35.252Z,27.50
2018-07-28T07:56:03.832Z,28.30
2018-07-28T07:58:34.721Z,28.90
2018-07-28T08:01:04.160Z,29.20
2018-07-28T08:03:37.854Z,29.30
2018-07-28T08:06:07.482Z,29.20
2018-07-28T08:08:36.826Z,29.40
2018-07-28T08:11:06.307Z,30.00
2018-07-28T08:16:32.020Z,30.20
2018-07-28T08:19:02.452Z,30.30
2018-07-28T08:21:32.101Z,30.50
2018-07-28T08:24:05.506Z,31.00
2018-07-28T08:26:34.360Z,30.70
2018-07-28T08:29:03.188Z,30.50
2018-07-28T08:31:32.066Z,30.50
2018-07-28T08:34:01.091Z,30.40
2018-07-28T08:36:29.939Z,30.30
2018-07-28T08:38:58.935Z,30.40
2018-07-28T08:41:28.036Z,30.10
2018-07-28T08:43:59.118Z,29.70
2018-07-28T08:46:28.048Z,29.30
2018-07-28T08:48:57.605Z,29.20
2018-07-28T08:51:26.412Z,29.10
2018-07-28T08:53:55.200Z,29.00
2018-07-28T08:56:24.182Z,29.00
2018-07-28T08:58:53.185Z,29.30
2018-07-28T09:01:23.324Z,31.60
2018-07-28T09:03:51.909Z,29.70
2018-07-28T09:06:20.508Z,30.40
2018-07-28T09:08:49.500Z,31.40
2018-07-28T09:11:26.271Z,31.90
2018-07-28T09:13:54.943Z,32.20
2018-07-28T09:16:23.575Z,32.50
2018-07-28T09:18:52.380Z,33.10
2018-07-28T09:21:21.006Z,33.30
2018-07-28T09:23:49.735Z,34.00
2018-07-28T09:26:18.248Z,34.10
2018-07-28T09:28:47.881Z,35.00
2018-07-28T09:31:16.525Z,35.30
2018-07-28T09:33:45.088Z,35.50
2018-07-28T09:36:15.074Z,34.70
2018-07-28T09:38:44.159Z,34.10
2018-07-28T09:41:53.923Z,33.90
2018-07-28T09:44:22.555Z,33.60
2018-07-28T09:46:51.165Z,33.30
2018-07-28T09:49:19.652Z,32.90
2018-07-28T09:51:48.643Z,33.30
2018-07-28T09:54:17.153Z,33.80
2018-07-28T09:56:45.678Z,34.40
2018-07-28T09:59:14.283Z,34.00
2018-07-28T10:01:42.840Z,33.80
2018-07-28T10:04:11.760Z,33.80
2018-07-28T10:09:17.521Z,34.50
2018-07-28T10:11:46.138Z,34.60
2018-07-28T10:14:14.934Z,35.00
2018-07-28T10:16:43.422Z,35.40
2018-07-28T10:19:12.190Z,35.30
2018-07-28T10:21:40.936Z,36.00
2018-07-28T10:24:09.818Z,36.70
2018-07-28T10:26:38.619Z,37.50
2018-07-28T10:29:09.045Z,37.40
2018-07-28T10:31:37.793Z,37.70
2018-07-28T10:34:06.463Z,36.70
2018-07-28T10:36:35.186Z,36.40
2018-07-28T10:39:06.276Z,36.60
2018-07-28T10:41:34.900Z,36.10
2018-07-28T10:44:03.571Z,35.90
2018-07-28T10:46:32.254Z,36.90
2018-07-28T10:49:00.866Z,37.50
2018-07-28T10:51:29.412Z,38.10
2018-07-28T10:53:57.926Z,38.50
2018-07-28T10:56:26.490Z,38.50
2018-07-28T10:58:55.046Z,38.60
2018-07-28T11:01:23.635Z,38.30
2018-07-28T11:03:52.279Z,38.30
2018-07-28T11:06:20.879Z,37.70
2018-07-28T11:08:49.394Z,37.40
2018-07-28T11:11:17.991Z,37.60
2018-07-28T11:13:46.568Z,37.60
2018-07-28T11:16:15.120Z,38.10
2018-07-28T11:18:43.731Z,37.90
2018-07-28T11:21:12.375Z,38.40
2018-07-28T11:23:57.047Z,38.60
2018-07-28T11:26:25.654Z,39.30
2018-07-28T11:28:54.463Z,40.30
2018-07-28T11:31:34.777Z,40.50
2018-07-28T11:34:14.483Z,40.00
2018-07-28T11:36:54.817Z,39.70
2018-07-28T11:39:34.796Z,39.10
2018-07-28T11:42:14.393Z,37.60
2018-07-28T11:45:08.020Z,36.90
2018-07-28T11:47:36.471Z,37.30
2018-07-28T11:50:05.035Z,38.40
2018-07-28T11:52:33.574Z,39.00
2018-07-28T11:55:02.709Z,39.00
2018-07-28T11:57:31.207Z,39.00
2018-07-28T11:59:59.869Z,39.80
2018-07-28T12:02:28.418Z,40.40
2018-07-28T12:04:57.035Z,41.30
2018-07-28T12:07:25.597Z,41.00
2018-07-28T12:09:54.233Z,41.20
2018-07-28T12:12:22.844Z,41.60
2018-07-28T12:14:52.283Z,41.70
2018-07-28T12:17:21.224Z,41.40
2018-07-28T12:19:50.280Z,41.70
2018-07-28T12:22:18.900Z,42.50
2018-07-28T12:24:47.511Z,42.30
2018-07-28T12:27:16.119Z,40.60
2018-07-28T12:29:44.650Z,39.10
2018-07-28T12:32:13.280Z,38.20
2018-07-28T12:34:42.013Z,38.30
2018-07-28T12:37:10.459Z,39.00
2018-07-28T12:39:39.090Z,39.10
2018-07-28T12:42:07.711Z,40.20
2018-07-28T12:44:36.263Z,40.40
2018-07-28T12:47:04.786Z,39.80
2018-07-28T12:49:33.289Z,39.50
2018-07-28T12:52:01.788Z,39.80
2018-07-28T12:54:30.272Z,40.00
2018-07-28T12:56:58.815Z,40.10
2018-07-28T12:59:27.728Z,39.10
2018-07-28T13:01:56.285Z,38.90
2018-07-28T13:13:03.462Z,35.90
2018-07-28T13:15:43.001Z,35.30
2018-07-28T13:18:38.112Z,35.00
2018-07-28T13:26:11.762Z,34.90
2018-07-28T13:29:51.076Z,35.10
2018-07-28T13:32:34.181Z,33.70
2018-07-28T13:35:36.664Z,34.00
2018-07-28T13:46:04.149Z,35.40
2018-07-28T13:52:11.614Z,33.70
2018-07-28T14:04:11.371Z,33.10
2018-07-28T14:10:05.895Z,33.60
2018-07-28T17:19:08.921Z,28.00
2018-07-28T17:29:34.262Z,27.70
2018-07-28T17:36:03.844Z,27.70
2018-07-28T17:38:40.210Z,27.70
2018-07-28T17:41:13.504Z,27.80
2018-07-28T17:43:59.105Z,27.70
2018-07-28T17:55:07.043Z,27.70
2018-07-28T17:58:12.872Z,27.70
2018-07-28T18:00:49.869Z,27.50
2018-07-28T18:03:21.555Z,27.40
2018-07-28T18:06:20.624Z,27.30
2018-07-28T18:12:49.475Z,27.20
2018-07-28T18:21:08.289Z,27.20
2018-07-28T18:50:11.943Z,26.40
2018-07-28T18:52:42.835Z,26.10
2018-07-28T18:55:11.780Z,26.00
2018-07-28T18:57:45.346Z,25.90
2018-07-28T19:00:16.055Z,25.80
2018-07-28T19:02:45.397Z,25.70
2018-07-28T19:05:29.162Z,25.60
2018-07-28T19:07:58.931Z,25.60
2018-07-28T19:10:53.100Z,25.50
2018-07-28T19:23:44.425Z,25.30
2018-07-28T19:26:56.348Z,25.20
2018-07-28T19:29:37.817Z,24.80
2018-07-28T19:32:12.514Z,24.60
2018-07-28T19:40:54.804Z,24.40
2018-07-28T19:43:31.252Z,24.30
2018-07-28T19:48:50.725Z,24.10
2018-07-28T19:51:34.851Z,24.00
2018-07-28T19:59:10.968Z,23.80
2018-07-28T20:01:39.619Z,23.70
2018-07-28T20:04:30.714Z,23.60
2018-07-28T20:07:06.120Z,23.50
2018-07-28T20:13:13.552Z,23.40
2018-07-28T20:30:12.744Z,23.20
2018-07-28T20:43:31.334Z,22.20
2018-07-28T20:50:50.932Z,22.00
2018-07-28T21:17:45.989Z,21.30
2018-07-28T21:29:14.219Z,20.90
2018-07-28T21:35:41.299Z,20.60
2018-07-28T21:49:23.698Z,20.10
2018-07-28T22:26:54.165Z,19.30
2018-07-28T22:29:35.507Z,19.30
2018-07-28T22:32:29.042Z,19.30
2018-07-28T22:40:08.649Z,19.30
2018-07-28T22:42:54.909Z,19.20
2018-07-28T22:51:19.147Z,19.10
2018-07-28T22:54:52.911Z,19.00
2018-07-28T22:57:25.623Z,18.90
2018-07-28T23:03:10.773Z,18.90
2018-07-28T23:08:50.719Z,18.60
2018-07-28T23:17:18.279Z,18.50
2018-07-28T23:19:49.373Z,18.40
2018-07-28T23:22:28.689Z,18.40
2018-07-28T23:26:32.845Z,18.40
2018-07-28T23:29:21.291Z,18.30
2018-07-28T23:32:02.219Z,18.30
